sensor_id;sensor_type;location;lat;lon;timestamp;P1;durP1;ratioP1;P2;durP2;ratioP2
21018;SDS011;10667;51.056;3.732;2023-03-20T00:01:13;26.02;;;15.82;;
21018;SDS011;10667;51.056;3.732;2023-03-20T00:03:42;20.95;;;13.93;;
21018;SDS011;10667;51.056;3.732;2023-03-20T00:06:20;29.55;;;14.73;;
21018;SDS011;10667;51.056;3.732;2023-03-20T00:08:48;28.75;;;15.45;;
21018;SDS011;10667;51.056;3.732;2023-03-20T00:11:28;25.33;;;16.15;;
21018;SDS011;10667;51.056;3.732;2023-03-20T00:14:00;29.10;;;15.98;;
21018;SDS011;10667;51.056;3.732;2023-03-20T00:16:30;22.05;;;15.70;;
21018;SDS011;10667;51.056;3.732;2023-03-20T00:19:00;22.52;;;14.63;;
21018;SDS011;10667;51.056;3.732;2023-03-20T00:21:27;28.00;;;16.65;;
21018;SDS011;10667;51.056;3.732;2023-03-20T00:23:54;28.60;;;16.10;;
21018;SDS011;10667;51.056;3.732;2023-03-20T00:26:20;29.48;;;16.23;;
21018;SDS011;10667;51.056;3.732;2023-03-20T00:28:50;27.98;;;15.70;;
21018;SDS011;10667;51.056;3.732;2023-03-20T00:33:51;22.67;;;16.17;;
21018;SDS011;10667;51.056;3.732;2023-03-20T00:36:21;29.17;;;17.33;;
21018;SDS011;10667;51.056;3.732;2023-03-20T00:38:48;32.55;;;17.25;;
21018;SDS011;10667;51.056;3.732;2023-03-20T00:44:00;30.90;;;18.02;;
21018;SDS011;10667;51.056;3.732;2023-03-20T00:46:32;31.48;;;16.77;;
21018;SDS011;10667;51.056;3.732;2023-03-20T00:49:02;31.38;;;17.90;;
21018;SDS011;10667;51.056;3.732;2023-03-20T00:51:28;29.00;;;16.60;;
21018;SDS011;10667;51.056;3.732;2023-03-20T00:53:53;29.75;;;17.15;;
21018;SDS011;10667;51.056;3.732;2023-03-20T00:56:35;28.42;;;16.63;;
21018;SDS011;10667;51.056;3.732;2023-03-20T00:59:13;29.23;;;18.05;;
21018;SDS011;10667;51.056;3.732;2023-03-20T01:01:43;27.15;;;16.50;;
21018;SDS011;10667;51.056;3.732;2023-03-20T01:04:12;31.13;;;15.65;;
21018;SDS011;10667;51.056;3.732;2023-03-20T01:06:39;31.08;;;16.05;;
21018;SDS011;10667;51.056;3.732;2023-03-20T01:09:05;30.25;;;15.35;;
21018;SDS011;10667;51.056;3.732;2023-03-20T01:11:31;24.60;;;15.60;;
21018;SDS011;10667;51.056;3.732;2023-03-20T01:13:57;26.40;;;15.07;;
21018;SDS011;10667;51.056;3.732;2023-03-20T01:16:23;29.30;;;16.27;;
21018;SDS011;10667;51.056;3.732;2023-03-20T01:18:51;30.67;;;16.08;;
21018;SDS011;10667;51.056;3.732;2023-03-20T01:21:17;29.30;;;15.77;;
21018;SDS011;10667;51.056;3.732;2023-03-20T01:23:43;24.67;;;14.95;;
21018;SDS011;10667;51.056;3.732;2023-03-20T01:26:31;23.83;;;14.88;;
21018;SDS011;10667;51.056;3.732;2023-03-20T01:29:02;30.40;;;14.93;;
21018;SDS011;10667;51.056;3.732;2023-03-20T01:31:29;27.90;;;14.52;;
21018;SDS011;10667;51.056;3.732;2023-03-20T01:33:54;24.52;;;15.48;;
21018;SDS011;10667;51.056;3.732;2023-03-20T01:36:21;19.92;;;13.57;;
21018;SDS011;10667;51.056;3.732;2023-03-20T01:38:51;26.05;;;14.07;;
21018;SDS011;10667;51.056;3.732;2023-03-20T01:41:20;35.05;;;15.43;;
21018;SDS011;10667;51.056;3.732;2023-03-20T01:43:49;27.83;;;15.18;;
21018;SDS011;10667;51.056;3.732;2023-03-20T01:46:17;24.88;;;14.32;;
21018;SDS011;10667;51.056;3.732;2023-03-20T01:49:04;24.30;;;15.60;;
21018;SDS011;10667;51.056;3.732;2023-03-20T01:51:43;34.22;;;14.52;;
21018;SDS011;10667;51.056;3.732;2023-03-20T01:54:12;26.83;;;14.15;;
21018;SDS011;10667;51.056;3.732;2023-03-20T01:56:50;28.25;;;14.23;;
21018;SDS011;10667;51.056;3.732;2023-03-20T01:59:32;33.80;;;14.70;;
21018;SDS011;10667;51.056;3.732;2023-03-20T02:02:07;29.52;;;14.48;;
21018;SDS011;10667;51.056;3.732;2023-03-20T02:04:35;29.60;;;14.60;;
21018;SDS011;10667;51.056;3.732;2023-03-20T02:07:05;29.85;;;15.18;;
21018;SDS011;10667;51.056;3.732;2023-03-20T02:09:32;23.58;;;13.85;;
21018;SDS011;10667;51.056;3.732;2023-03-20T02:11:58;35.58;;;14.57;;
21018;SDS011;10667;51.056;3.732;2023-03-20T02:14:24;29.48;;;15.07;;
21018;SDS011;10667;51.056;3.732;2023-03-20T02:16:51;29.65;;;14.95;;
21018;SDS011;10667;51.056;3.732;2023-03-20T02:19:20;24.00;;;15.07;;
21018;SDS011;10667;51.056;3.732;2023-03-20T02:22:06;27.63;;;14.70;;
21018;SDS011;10667;51.056;3.732;2023-03-20T02:44:11;33.42;;;17.17;;
21018;SDS011;10667;51.056;3.732;2023-03-20T02:49:26;30.92;;;16.92;;
21018;SDS011;10667;51.056;3.732;2023-03-20T02:52:16;30.83;;;18.00;;
21018;SDS011;10667;51.056;3.732;2023-03-20T03:03:18;45.25;;;16.67;;
21018;SDS011;10667;51.056;3.732;2023-03-20T03:06:01;33.90;;;17.55;;
21018;SDS011;10667;51.056;3.732;2023-03-20T03:08:41;32.63;;;18.25;;
21018;SDS011;10667;51.056;3.732;2023-03-20T03:11:11;36.65;;;16.60;;
21018;SDS011;10667;51.056;3.732;2023-03-20T03:13:39;29.80;;;16.85;;
21018;SDS011;10667;51.056;3.732;2023-03-20T03:16:10;32.88;;;17.00;;
21018;SDS011;10667;51.056;3.732;2023-03-20T03:18:39;30.60;;;16.55;;
21018;SDS011;10667;51.056;3.732;2023-03-20T03:21:07;28.65;;;16.42;;
21018;SDS011;10667;51.056;3.732;2023-03-20T03:23:47;35.85;;;17.02;;
21018;SDS011;10667;51.056;3.732;2023-03-20T03:26:18;33.20;;;16.27;;
21018;SDS011;10667;51.056;3.732;2023-03-20T03:28:59;31.00;;;17.20;;
21018;SDS011;10667;51.056;3.732;2023-03-20T03:31:28;35.70;;;16.45;;
21018;SDS011;10667;51.056;3.732;2023-03-20T03:33:56;34.78;;;15.40;;
21018;SDS011;10667;51.056;3.732;2023-03-20T03:36:47;31.05;;;15.45;;
21018;SDS011;10667;51.056;3.732;2023-03-20T03:39:35;36.38;;;16.65;;
21018;SDS011;10667;51.056;3.732;2023-03-20T03:45:01;32.35;;;15.25;;
21018;SDS011;10667;51.056;3.732;2023-03-20T03:47:49;33.05;;;15.05;;
21018;SDS011;10667;51.056;3.732;2023-03-20T03:53:33;35.75;;;14.90;;
21018;SDS011;10667;51.056;3.732;2023-03-20T03:56:04;30.67;;;14.90;;
21018;SDS011;10667;51.056;3.732;2023-03-20T03:58:36;31.67;;;15.73;;
21018;SDS011;10667;51.056;3.732;2023-03-20T04:01:07;31.25;;;15.20;;
21018;SDS011;10667;51.056;3.732;2023-03-20T04:03:38;34.63;;;15.50;;
21018;SDS011;10667;51.056;3.732;2023-03-20T04:06:07;30.52;;;16.10;;
21018;SDS011;10667;51.056;3.732;2023-03-20T04:08:35;37.63;;;15.30;;
21018;SDS011;10667;51.056;3.732;2023-03-20T04:11:01;33.17;;;15.07;;
21018;SDS011;10667;51.056;3.732;2023-03-20T04:13:27;35.63;;;14.48;;
21018;SDS011;10667;51.056;3.732;2023-03-20T04:15:52;34.10;;;13.95;;
21018;SDS011;10667;51.056;3.732;2023-03-20T04:18:18;33.42;;;13.68;;
21018;SDS011;10667;51.056;3.732;2023-03-20T04:20:44;32.45;;;14.80;;
21018;SDS011;10667;51.056;3.732;2023-03-20T04:23:11;26.98;;;12.73;;
21018;SDS011;10667;51.056;3.732;2023-03-20T04:25:37;42.42;;;13.80;;
21018;SDS011;10667;51.056;3.732;2023-03-20T04:28:03;34.42;;;13.43;;
21018;SDS011;10667;51.056;3.732;2023-03-20T04:30:29;31.92;;;12.98;;
21018;SDS011;10667;51.056;3.732;2023-03-20T04:32:54;28.25;;;12.27;;
21018;SDS011;10667;51.056;3.732;2023-03-20T04:35:21;29.45;;;11.93;;
21018;SDS011;10667;51.056;3.732;2023-03-20T04:37:46;29.23;;;12.73;;
21018;SDS011;10667;51.056;3.732;2023-03-20T04:40:12;35.45;;;12.27;;
21018;SDS011;10667;51.056;3.732;2023-03-20T04:42:38;28.73;;;12.32;;
21018;SDS011;10667;51.056;3.732;2023-03-20T04:45:04;27.80;;;13.25;;
21018;SDS011;10667;51.056;3.732;2023-03-20T04:47:31;30.52;;;13.68;;
21018;SDS011;10667;51.056;3.732;2023-03-20T04:49:56;28.92;;;12.68;;
21018;SDS011;10667;51.056;3.732;2023-03-20T04:52:22;27.52;;;12.82;;
21018;SDS011;10667;51.056;3.732;2023-03-20T04:54:48;31.70;;;13.27;;
21018;SDS011;10667;51.056;3.732;2023-03-20T04:57:13;32.15;;;13.02;;
21018;SDS011;10667;51.056;3.732;2023-03-20T04:59:40;26.73;;;13.30;;
21018;SDS011;10667;51.056;3.732;2023-03-20T05:02:05;29.77;;;12.38;;
21018;SDS011;10667;51.056;3.732;2023-03-20T05:04:31;35.47;;;12.93;;
21018;SDS011;10667;51.056;3.732;2023-03-20T05:06:57;29.55;;;14.27;;
21018;SDS011;10667;51.056;3.732;2023-03-20T05:09:22;33.30;;;12.05;;
21018;SDS011;10667;51.056;3.732;2023-03-20T05:11:48;34.17;;;13.25;;
21018;SDS011;10667;51.056;3.732;2023-03-20T05:14:14;25.80;;;11.85;;
21018;SDS011;10667;51.056;3.732;2023-03-20T05:16:40;30.40;;;11.75;;
21018;SDS011;10667;51.056;3.732;2023-03-20T05:19:05;28.63;;;12.43;;
21018;SDS011;10667;51.056;3.732;2023-03-20T05:21:31;32.97;;;11.75;;
21018;SDS011;10667;51.056;3.732;2023-03-20T05:23:57;25.20;;;11.75;;
21018;SDS011;10667;51.056;3.732;2023-03-20T05:26:23;30.42;;;12.35;;
21018;SDS011;10667;51.056;3.732;2023-03-20T05:28:48;33.88;;;12.68;;
21018;SDS011;10667;51.056;3.732;2023-03-20T05:31:14;33.78;;;12.05;;
21018;SDS011;10667;51.056;3.732;2023-03-20T05:33:40;36.05;;;12.10;;
21018;SDS011;10667;51.056;3.732;2023-03-20T05:36:05;25.20;;;12.25;;
21018;SDS011;10667;51.056;3.732;2023-03-20T05:38:32;28.30;;;12.25;;
21018;SDS011;10667;51.056;3.732;2023-03-20T05:40:58;31.20;;;13.27;;
21018;SDS011;10667;51.056;3.732;2023-03-20T05:43:24;26.55;;;10.98;;
21018;SDS011;10667;51.056;3.732;2023-03-20T05:45:52;31.35;;;11.25;;
21018;SDS011;10667;51.056;3.732;2023-03-20T05:48:18;31.75;;;12.30;;
21018;SDS011;10667;51.056;3.732;2023-03-20T05:50:43;33.28;;;11.82;;
21018;SDS011;10667;51.056;3.732;2023-03-20T05:53:09;24.13;;;11.38;;
21018;SDS011;10667;51.056;3.732;2023-03-20T05:55:35;27.92;;;11.50;;
21018;SDS011;10667;51.056;3.732;2023-03-20T05:58:01;29.67;;;11.40;;
21018;SDS011;10667;51.056;3.732;2023-03-20T06:00:26;23.77;;;10.70;;
21018;SDS011;10667;51.056;3.732;2023-03-20T06:02:52;29.13;;;12.35;;
21018;SDS011;10667;51.056;3.732;2023-03-20T06:05:18;22.52;;;11.20;;
21018;SDS011;10667;51.056;3.732;2023-03-20T06:07:43;29.13;;;11.60;;
21018;SDS011;10667;51.056;3.732;2023-03-20T06:10:09;28.35;;;12.85;;
21018;SDS011;10667;51.056;3.732;2023-03-20T06:12:35;25.17;;;11.15;;
21018;SDS011;10667;51.056;3.732;2023-03-20T06:15:01;30.33;;;11.25;;
21018;SDS011;10667;51.056;3.732;2023-03-20T06:17:27;25.63;;;10.82;;
21018;SDS011;10667;51.056;3.732;2023-03-20T06:19:53;29.02;;;11.10;;
21018;SDS011;10667;51.056;3.732;2023-03-20T06:22:18;24.13;;;10.55;;
21018;SDS011;10667;51.056;3.732;2023-03-20T06:24:44;24.48;;;11.73;;
21018;SDS011;10667;51.056;3.732;2023-03-20T06:27:10;27.92;;;10.57;;
21018;SDS011;10667;51.056;3.732;2023-03-20T06:29:36;21.58;;;11.25;;
21018;SDS011;10667;51.056;3.732;2023-03-20T06:32:01;22.17;;;10.70;;
21018;SDS011;10667;51.056;3.732;2023-03-20T06:34:27;31.33;;;11.05;;
21018;SDS011;10667;51.056;3.732;2023-03-20T06:36:54;26.75;;;10.70;;
21018;SDS011;10667;51.056;3.732;2023-03-20T06:39:20;29.23;;;10.70;;
21018;SDS011;10667;51.056;3.732;2023-03-20T06:41:46;24.55;;;10.32;;
21018;SDS011;10667;51.056;3.732;2023-03-20T06:44:11;26.38;;;10.88;;
21018;SDS011;10667;51.056;3.732;2023-03-20T06:46:37;26.17;;;10.90;;
21018;SDS011;10667;51.056;3.732;2023-03-20T06:49:02;28.08;;;11.15;;
21018;SDS011;10667;51.056;3.732;2023-03-20T06:51:28;19.40;;;10.35;;
21018;SDS011;10667;51.056;3.732;2023-03-20T06:53:54;21.00;;;9.95;;
21018;SDS011;10667;51.056;3.732;2023-03-20T06:56:19;28.67;;;10.60;;
21018;SDS011;10667;51.056;3.732;2023-03-20T06:58:45;27.60;;;10.95;;
21018;SDS011;10667;51.056;3.732;2023-03-20T07:01:11;23.48;;;10.25;;
21018;SDS011;10667;51.056;3.732;2023-03-20T07:03:39;26.15;;;10.63;;
21018;SDS011;10667;51.056;3.732;2023-03-20T07:06:05;29.48;;;10.38;;
21018;SDS011;10667;51.056;3.732;2023-03-20T07:08:31;18.60;;;9.45;;
21018;SDS011;10667;51.056;3.732;2023-03-20T07:10:57;25.17;;;10.45;;
21018;SDS011;10667;51.056;3.732;2023-03-20T07:13:23;29.40;;;10.45;;
21018;SDS011;10667;51.056;3.732;2023-03-20T07:15:50;26.90;;;10.38;;
21018;SDS011;10667;51.056;3.732;2023-03-20T07:18:16;25.58;;;11.07;;
21018;SDS011;10667;51.056;3.732;2023-03-20T07:20:43;22.08;;;9.85;;
21018;SDS011;10667;51.056;3.732;2023-03-20T07:23:08;18.45;;;9.88;;
21018;SDS011;10667;51.056;3.732;2023-03-20T07:25:34;26.10;;;9.82;;
21018;SDS011;10667;51.056;3.732;2023-03-20T07:28:00;31.13;;;10.35;;
21018;SDS011;10667;51.056;3.732;2023-03-20T07:30:26;20.88;;;8.82;;
21018;SDS011;10667;51.056;3.732;2023-03-20T07:32:51;32.42;;;10.15;;
21018;SDS011;10667;51.056;3.732;2023-03-20T07:35:17;30.85;;;10.90;;
21018;SDS011;10667;51.056;3.732;2023-03-20T07:37:44;24.58;;;8.63;;
21018;SDS011;10667;51.056;3.732;2023-03-20T07:40:10;17.10;;;7.65;;
21018;SDS011;10667;51.056;3.732;2023-03-20T07:42:36;21.98;;;7.93;;
21018;SDS011;10667;51.056;3.732;2023-03-20T07:45:02;22.70;;;8.15;;
21018;SDS011;10667;51.056;3.732;2023-03-20T07:47:28;22.05;;;8.35;;
21018;SDS011;10667;51.056;3.732;2023-03-20T07:49:53;21.48;;;7.70;;
21018;SDS011;10667;51.056;3.732;2023-03-20T07:52:19;23.77;;;7.50;;
21018;SDS011;10667;51.056;3.732;2023-03-20T07:54:45;20.80;;;7.15;;
21018;SDS011;10667;51.056;3.732;2023-03-20T07:57:10;19.00;;;7.55;;
21018;SDS011;10667;51.056;3.732;2023-03-20T07:59:36;21.40;;;8.57;;
21018;SDS011;10667;51.056;3.732;2023-03-20T08:02:01;25.80;;;7.90;;
21018;SDS011;10667;51.056;3.732;2023-03-20T08:04:27;15.60;;;6.80;;
21018;SDS011;10667;51.056;3.732;2023-03-20T08:06:53;21.15;;;7.80;;
21018;SDS011;10667;51.056;3.732;2023-03-20T08:09:18;14.95;;;6.70;;
21018;SDS011;10667;51.056;3.732;2023-03-20T08:11:44;23.77;;;7.85;;
21018;SDS011;10667;51.056;3.732;2023-03-20T08:14:10;19.20;;;8.00;;
21018;SDS011;10667;51.056;3.732;2023-03-20T08:16:36;19.00;;;7.32;;
21018;SDS011;10667;51.056;3.732;2023-03-20T08:19:02;20.58;;;7.38;;
21018;SDS011;10667;51.056;3.732;2023-03-20T08:21:30;22.55;;;7.80;;
21018;SDS011;10667;51.056;3.732;2023-03-20T08:23:56;23.30;;;7.55;;
21018;SDS011;10667;51.056;3.732;2023-03-20T08:26:22;23.60;;;7.45;;
21018;SDS011;10667;51.056;3.732;2023-03-20T08:28:48;18.48;;;8.32;;
21018;SDS011;10667;51.056;3.732;2023-03-20T08:31:15;20.60;;;7.55;;
21018;SDS011;10667;51.056;3.732;2023-03-20T08:33:42;17.25;;;6.63;;
21018;SDS011;10667;51.056;3.732;2023-03-20T08:36:08;25.38;;;7.20;;
21018;SDS011;10667;51.056;3.732;2023-03-20T08:38:34;19.75;;;7.32;;
21018;SDS011;10667;51.056;3.732;2023-03-20T08:41:00;19.42;;;7.50;;
21018;SDS011;10667;51.056;3.732;2023-03-20T08:43:26;18.02;;;8.10;;
21018;SDS011;10667;51.056;3.732;2023-03-20T08:45:51;20.17;;;7.55;;
21018;SDS011;10667;51.056;3.732;2023-03-20T08:48:18;27.90;;;8.75;;
21018;SDS011;10667;51.056;3.732;2023-03-20T08:50:44;19.25;;;8.32;;
21018;SDS011;10667;51.056;3.732;2023-03-20T08:53:10;14.27;;;7.65;;
21018;SDS011;10667;51.056;3.732;2023-03-20T08:55:36;16.08;;;6.93;;
21018;SDS011;10667;51.056;3.732;2023-03-20T08:58:02;15.88;;;7.10;;
21018;SDS011;10667;51.056;3.732;2023-03-20T09:00:28;23.15;;;10.07;;
21018;SDS011;10667;51.056;3.732;2023-03-20T09:02:53;19.55;;;12.30;;
21018;SDS011;10667;51.056;3.732;2023-03-20T09:05:19;16.70;;;8.35;;
21018;SDS011;10667;51.056;3.732;2023-03-20T09:07:45;21.40;;;7.72;;
21018;SDS011;10667;51.056;3.732;2023-03-20T09:10:11;20.45;;;8.57;;
21018;SDS011;10667;51.056;3.732;2023-03-20T09:12:37;16.08;;;7.65;;
21018;SDS011;10667;51.056;3.732;2023-03-20T09:15:03;14.88;;;8.02;;
21018;SDS011;10667;51.056;3.732;2023-03-20T09:17:30;18.92;;;8.60;;
21018;SDS011;10667;51.056;3.732;2023-03-20T09:19:56;23.52;;;9.02;;
21018;SDS011;10667;51.056;3.732;2023-03-20T09:22:22;21.83;;;8.45;;
21018;SDS011;10667;51.056;3.732;2023-03-20T09:24:48;24.75;;;8.45;;
21018;SDS011;10667;51.056;3.732;2023-03-20T09:27:13;34.28;;;7.85;;
21018;SDS011;10667;51.056;3.732;2023-03-20T09:29:40;27.45;;;7.57;;
21018;SDS011;10667;51.056;3.732;2023-03-20T09:32:09;18.05;;;6.93;;
21018;SDS011;10667;51.056;3.732;2023-03-20T09:34:39;21.48;;;7.63;;
21018;SDS011;10667;51.056;3.732;2023-03-20T09:37:05;17.90;;;7.18;;
21018;SDS011;10667;51.056;3.732;2023-03-20T09:39:30;20.75;;;6.93;;
21018;SDS011;10667;51.056;3.732;2023-03-20T09:41:58;16.48;;;6.90;;
21018;SDS011;10667;51.056;3.732;2023-03-20T09:44:37;24.83;;;9.27;;
21018;SDS011;10667;51.056;3.732;2023-03-20T09:47:31;18.98;;;7.47;;
21018;SDS011;10667;51.056;3.732;2023-03-20T09:50:23;24.00;;;7.63;;
21018;SDS011;10667;51.056;3.732;2023-03-20T09:55:46;23.73;;;7.20;;
21018;SDS011;10667;51.056;3.732;2023-03-20T09:58:20;20.83;;;7.10;;
21018;SDS011;10667;51.056;3.732;2023-03-20T10:00:54;19.45;;;6.82;;
21018;SDS011;10667;51.056;3.732;2023-03-20T10:03:36;23.50;;;6.80;;
21018;SDS011;10667;51.056;3.732;2023-03-20T10:06:16;19.73;;;7.30;;
21018;SDS011;10667;51.056;3.732;2023-03-20T10:08:42;25.13;;;7.35;;
21018;SDS011;10667;51.056;3.732;2023-03-20T10:21:43;17.88;;;7.00;;
21018;SDS011;10667;51.056;3.732;2023-03-20T10:27:13;17.88;;;7.07;;
21018;SDS011;10667;51.056;3.732;2023-03-20T10:40:58;21.30;;;6.75;;
21018;SDS011;10667;51.056;3.732;2023-03-20T10:43:31;21.50;;;7.70;;
21018;SDS011;10667;51.056;3.732;2023-03-20T10:48:38;21.67;;;7.25;;
21018;SDS011;10667;51.056;3.732;2023-03-20T10:51:12;17.27;;;7.15;;
21018;SDS011;10667;51.056;3.732;2023-03-20T10:53:44;29.48;;;8.70;;
21018;SDS011;10667;51.056;3.732;2023-03-20T10:59:06;25.08;;;9.15;;
21018;SDS011;10667;51.056;3.732;2023-03-20T11:01:38;18.85;;;7.75;;
21018;SDS011;10667;51.056;3.732;2023-03-20T11:04:03;26.10;;;7.80;;
21018;SDS011;10667;51.056;3.732;2023-03-20T11:06:30;20.30;;;7.38;;
21018;SDS011;10667;51.056;3.732;2023-03-20T11:09:09;21.13;;;7.05;;
21018;SDS011;10667;51.056;3.732;2023-03-20T11:11:41;17.40;;;7.03;;
21018;SDS011;10667;51.056;3.732;2023-03-20T11:14:25;22.73;;;6.93;;
21018;SDS011;10667;51.056;3.732;2023-03-20T11:16:58;19.88;;;6.95;;
21018;SDS011;10667;51.056;3.732;2023-03-20T11:19:34;21.00;;;8.25;;
21018;SDS011;10667;51.056;3.732;2023-03-20T11:22:08;19.98;;;8.13;;
21018;SDS011;10667;51.056;3.732;2023-03-20T11:24:57;20.80;;;8.13;;
21018;SDS011;10667;51.056;3.732;2023-03-20T11:27:27;19.17;;;7.53;;
21018;SDS011;10667;51.056;3.732;2023-03-20T11:29:55;21.23;;;7.25;;
21018;SDS011;10667;51.056;3.732;2023-03-20T11:32:32;22.83;;;7.90;;
21018;SDS011;10667;51.056;3.732;2023-03-20T11:37:53;26.35;;;7.78;;
21018;SDS011;10667;51.056;3.732;2023-03-20T11:40:30;23.48;;;7.68;;
21018;SDS011;10667;51.056;3.732;2023-03-20T11:45:25;20.45;;;7.80;;
21018;SDS011;10667;51.056;3.732;2023-03-20T11:47:59;24.48;;;8.93;;
21018;SDS011;10667;51.056;3.732;2023-03-20T11:52:56;21.55;;;6.93;;
21018;SDS011;10667;51.056;3.732;2023-03-20T11:55:23;20.98;;;7.38;;
21018;SDS011;10667;51.056;3.732;2023-03-20T11:57:59;21.27;;;7.15;;
21018;SDS011;10667;51.056;3.732;2023-03-20T12:00:28;16.23;;;7.22;;
21018;SDS011;10667;51.056;3.732;2023-03-20T12:03:01;22.75;;;7.65;;
21018;SDS011;10667;51.056;3.732;2023-03-20T12:05:35;13.65;;;7.00;;
21018;SDS011;10667;51.056;3.732;2023-03-20T12:08:14;23.25;;;8.13;;
21018;SDS011;10667;51.056;3.732;2023-03-20T12:10:45;19.00;;;8.00;;
21018;SDS011;10667;51.056;3.732;2023-03-20T12:13:21;20.52;;;7.90;;
21018;SDS011;10667;51.056;3.732;2023-03-20T12:15:52;19.50;;;7.65;;
21018;SDS011;10667;51.056;3.732;2023-03-20T12:21:06;20.65;;;7.60;;
21018;SDS011;10667;51.056;3.732;2023-03-20T12:23:39;19.98;;;7.55;;
21018;SDS011;10667;51.056;3.732;2023-03-20T12:26:12;21.92;;;7.68;;
21018;SDS011;10667;51.056;3.732;2023-03-20T12:32:01;20.23;;;6.97;;
21018;SDS011;10667;51.056;3.732;2023-03-20T12:34:43;22.92;;;8.20;;
21018;SDS011;10667;51.056;3.732;2023-03-20T12:37:15;20.60;;;7.80;;
21018;SDS011;10667;51.056;3.732;2023-03-20T12:39:52;29.30;;;8.82;;
21018;SDS011;10667;51.056;3.732;2023-03-20T12:45:19;22.20;;;7.38;;
21018;SDS011;10667;51.056;3.732;2023-03-20T12:50:41;19.50;;;8.18;;
21018;SDS011;10667;51.056;3.732;2023-03-20T12:58:51;26.75;;;7.90;;
21018;SDS011;10667;51.056;3.732;2023-03-20T13:01:30;18.63;;;7.38;;
21018;SDS011;10667;51.056;3.732;2023-03-20T13:04:04;21.85;;;7.53;;
21018;SDS011;10667;51.056;3.732;2023-03-20T13:09:31;26.58;;;8.07;;
21018;SDS011;10667;51.056;3.732;2023-03-20T13:12:15;16.33;;;7.07;;
21018;SDS011;10667;51.056;3.732;2023-03-20T13:17:43;22.45;;;7.25;;
21018;SDS011;10667;51.056;3.732;2023-03-20T13:20:23;25.80;;;8.48;;
21018;SDS011;10667;51.056;3.732;2023-03-20T13:28:28;22.52;;;8.20;;
21018;SDS011;10667;51.056;3.732;2023-03-20T13:37:09;21.20;;;7.38;;
21018;SDS011;10667;51.056;3.732;2023-03-20T13:42:42;24.92;;;7.90;;
21018;SDS011;10667;51.056;3.732;2023-03-20T13:45:30;20.30;;;7.32;;
21018;SDS011;10667;51.056;3.732;2023-03-20T13:48:19;26.48;;;6.72;;
21018;SDS011;10667;51.056;3.732;2023-03-20T13:51:03;18.30;;;6.38;;
21018;SDS011;10667;51.056;3.732;2023-03-20T13:56:25;20.35;;;6.97;;
21018;SDS011;10667;51.056;3.732;2023-03-20T14:04:39;16.95;;;6.55;;
21018;SDS011;10667;51.056;3.732;2023-03-20T14:09:52;19.77;;;6.05;;
21018;SDS011;10667;51.056;3.732;2023-03-20T14:12:19;14.20;;;5.40;;
21018;SDS011;10667;51.056;3.732;2023-03-20T14:14:53;25.38;;;5.38;;
21018;SDS011;10667;51.056;3.732;2023-03-20T14:19:53;17.77;;;5.05;;
21018;SDS011;10667;51.056;3.732;2023-03-20T14:22:28;18.25;;;4.68;;
21018;SDS011;10667;51.056;3.732;2023-03-20T14:24:59;17.95;;;4.53;;
21018;SDS011;10667;51.056;3.732;2023-03-20T14:27:33;21.10;;;5.47;;
21018;SDS011;10667;51.056;3.732;2023-03-20T14:35:49;12.98;;;4.40;;
21018;SDS011;10667;51.056;3.732;2023-03-20T14:43:18;23.15;;;5.25;;
21018;SDS011;10667;51.056;3.732;2023-03-20T14:52:28;19.33;;;5.07;;
21018;SDS011;10667;51.056;3.732;2023-03-20T14:55:26;16.17;;;5.05;;
21018;SDS011;10667;51.056;3.732;2023-03-20T14:57:55;19.10;;;5.32;;
21018;SDS011;10667;51.056;3.732;2023-03-20T15:00:33;15.90;;;6.20;;
21018;SDS011;10667;51.056;3.732;2023-03-20T15:03:08;21.35;;;6.28;;
21018;SDS011;10667;51.056;3.732;2023-03-20T15:05:37;15.45;;;6.03;;
21018;SDS011;10667;51.056;3.732;2023-03-20T15:08:13;19.25;;;6.57;;
21018;SDS011;10667;51.056;3.732;2023-03-20T15:10:50;24.60;;;6.57;;
21018;SDS011;10667;51.056;3.732;2023-03-20T15:13:19;17.80;;;6.40;;
21018;SDS011;10667;51.056;3.732;2023-03-20T15:15:52;23.83;;;6.50;;
21018;SDS011;10667;51.056;3.732;2023-03-20T15:18:34;28.33;;;7.07;;
21018;SDS011;10667;51.056;3.732;2023-03-20T15:21:47;23.40;;;6.95;;
21018;SDS011;10667;51.056;3.732;2023-03-20T15:24:16;16.20;;;5.63;;
21018;SDS011;10667;51.056;3.732;2023-03-20T15:26:49;22.13;;;6.72;;
21018;SDS011;10667;51.056;3.732;2023-03-20T15:29:18;18.33;;;5.93;;
21018;SDS011;10667;51.056;3.732;2023-03-20T15:31:44;20.85;;;5.88;;
21018;SDS011;10667;51.056;3.732;2023-03-20T15:34:18;22.52;;;5.72;;
21018;SDS011;10667;51.056;3.732;2023-03-20T15:36:47;20.42;;;6.00;;
21018;SDS011;10667;51.056;3.732;2023-03-20T15:39:16;19.08;;;5.20;;
21018;SDS011;10667;51.056;3.732;2023-03-20T15:41:44;16.10;;;5.00;;
21018;SDS011;10667;51.056;3.732;2023-03-20T15:46:58;13.15;;;3.72;;
21018;SDS011;10667;51.056;3.732;2023-03-20T15:49:27;12.63;;;3.55;;
21018;SDS011;10667;51.056;3.732;2023-03-20T15:51:56;14.05;;;3.83;;
21018;SDS011;10667;51.056;3.732;2023-03-20T15:54:26;12.20;;;3.78;;
21018;SDS011;10667;51.056;3.732;2023-03-20T15:56:53;13.48;;;3.30;;
21018;SDS011;10667;51.056;3.732;2023-03-20T15:59:22;11.30;;;4.35;;
21018;SDS011;10667;51.056;3.732;2023-03-20T16:01:51;13.10;;;3.90;;
21018;SDS011;10667;51.056;3.732;2023-03-20T16:04:20;18.85;;;4.10;;
21018;SDS011;10667;51.056;3.732;2023-03-20T16:06:47;20.23;;;4.75;;
21018;SDS011;10667;51.056;3.732;2023-03-20T16:09:21;16.85;;;4.95;;
21018;SDS011;10667;51.056;3.732;2023-03-20T16:11:53;22.35;;;5.05;;
21018;SDS011;10667;51.056;3.732;2023-03-20T16:14:22;11.90;;;5.55;;
21018;SDS011;10667;51.056;3.732;2023-03-20T16:16:53;10.38;;;4.15;;
21018;SDS011;10667;51.056;3.732;2023-03-20T16:19:20;15.63;;;4.70;;
21018;SDS011;10667;51.056;3.732;2023-03-20T16:21:52;10.85;;;4.85;;
21018;SDS011;10667;51.056;3.732;2023-03-20T16:24:35;15.40;;;5.32;;
21018;SDS011;10667;51.056;3.732;2023-03-20T16:27:07;17.38;;;4.80;;
21018;SDS011;10667;51.056;3.732;2023-03-20T16:29:33;17.15;;;5.25;;
21018;SDS011;10667;51.056;3.732;2023-03-20T16:32:08;11.63;;;4.15;;
21018;SDS011;10667;51.056;3.732;2023-03-20T16:34:41;15.63;;;4.20;;
21018;SDS011;10667;51.056;3.732;2023-03-20T16:37:28;16.92;;;5.55;;
21018;SDS011;10667;51.056;3.732;2023-03-20T16:42:27;13.88;;;5.53;;
21018;SDS011;10667;51.056;3.732;2023-03-20T16:44:54;13.73;;;5.63;;
21018;SDS011;10667;51.056;3.732;2023-03-20T16:47:39;17.48;;;5.03;;
21018;SDS011;10667;51.056;3.732;2023-03-20T16:50:22;17.65;;;5.45;;
21018;SDS011;10667;51.056;3.732;2023-03-20T16:52:58;15.82;;;6.05;;
21018;SDS011;10667;51.056;3.732;2023-03-20T16:55:30;20.95;;;6.68;;
21018;SDS011;10667;51.056;3.732;2023-03-20T16:58:02;18.70;;;6.50;;
21018;SDS011;10667;51.056;3.732;2023-03-20T17:00:31;22.20;;;6.75;;
21018;SDS011;10667;51.056;3.732;2023-03-20T17:03:13;19.15;;;5.85;;
21018;SDS011;10667;51.056;3.732;2023-03-20T17:05:48;14.65;;;5.03;;
21018;SDS011;10667;51.056;3.732;2023-03-20T17:08:25;19.73;;;5.80;;
21018;SDS011;10667;51.056;3.732;2023-03-20T17:10:59;9.82;;;4.70;;
21018;SDS011;10667;51.056;3.732;2023-03-20T17:13:29;14.45;;;4.75;;
21018;SDS011;10667;51.056;3.732;2023-03-20T17:15:55;15.38;;;5.82;;
21018;SDS011;10667;51.056;3.732;2023-03-20T17:18:23;16.08;;;5.18;;
21018;SDS011;10667;51.056;3.732;2023-03-20T17:20:48;16.50;;;5.55;;
21018;SDS011;10667;51.056;3.732;2023-03-20T17:23:16;15.93;;;4.75;;